createdAt,value
2023-01-19T00:00:27.583Z,63.04
2023-01-19T00:01:29.335Z,65.49
2023-01-19T00:02:31.065Z,66.82
2023-01-19T00:03:34.666Z,65.56
2023-01-19T00:04:36.364Z,64.48
2023-01-19T00:05:38.162Z,65.08
2023-01-19T00:06:39.861Z,64.67
2023-01-19T00:07:42.170Z,64.94
2023-01-19T00:08:48.815Z,64.69
2023-01-19T00:09:50.769Z,64.39
2023-01-19T00:10:52.562Z,64.41
2023-01-19T00:11:54.518Z,64.57
2023-01-19T00:12:56.254Z,64.73
2023-01-19T00:13:58.923Z,63.92
2023-01-19T00:15:00.659Z,63.80
2023-01-19T00:16:02.580Z,63.94
2023-01-19T00:17:04.376Z,64.51
2023-01-19T00:18:07.632Z,63.97
2023-01-19T00:19:10.785Z,63.85
2023-01-19T00:20:13.730Z,64.49
2023-01-19T00:21:15.929Z,64.05
2023-01-19T00:22:17.690Z,63.95
2023-01-19T00:23:20.472Z,63.36
2023-01-19T00:24:22.263Z,62.45
2023-01-19T00:25:23.980Z,62.64
2023-01-19T00:26:25.723Z,62.49
2023-01-19T00:27:27.406Z,61.83
2023-01-19T00:28:29.153Z,61.91
2023-01-19T00:29:33.554Z,62.07
2023-01-19T00:30:35.249Z,62.13
2023-01-19T00:31:37.422Z,62.01
2023-01-19T00:32:39.308Z,61.14
2023-01-19T00:33:41.024Z,60.90
2023-01-19T00:34:49.578Z,60.10
2023-01-19T00:35:53.135Z,60.21
2023-01-19T00:36:54.850Z,59.89
2023-01-19T00:38:00.137Z,60.18
2023-01-19T00:39:01.971Z,60.49
2023-01-19T00:40:03.934Z,59.77
2023-01-19T00:41:05.795Z,60.69
2023-01-19T00:42:27.057Z,62.18
2023-01-19T00:43:28.823Z,62.67
2023-01-19T00:44:30.495Z,62.77
2023-01-19T00:45:33.609Z,62.65
2023-01-19T00:46:35.382Z,62.59
2023-01-19T00:47:37.385Z,63.14
2023-01-19T00:48:39.152Z,63.12
2023-01-19T00:49:40.907Z,63.20
2023-01-19T00:50:42.628Z,64.12
2023-01-19T00:51:44.365Z,64.46
2023-01-19T00:52:46.428Z,64.73
2023-01-19T00:53:48.184Z,65.50
2023-01-19T00:54:49.938Z,65.60
2023-01-19T00:55:51.749Z,66.38
2023-01-19T00:56:54.245Z,66.76
2023-01-19T00:57:56.249Z,66.38
2023-01-19T00:58:58.057Z,66.56
2023-01-19T00:59:59.841Z,66.45
2023-01-19T01:01:03.904Z,65.90
2023-01-19T01:02:06.086Z,66.06
2023-01-19T01:03:08.139Z,65.16
2023-01-19T01:04:12.363Z,65.38
2023-01-19T01:05:14.407Z,64.20
2023-01-19T01:06:16.172Z,63.72
2023-01-19T01:07:17.930Z,64.29
2023-01-19T01:08:19.724Z,64.24
2023-01-19T01:09:21.493Z,63.90
2023-01-19T01:10:26.677Z,63.74
2023-01-19T01:11:28.487Z,64.12
2023-01-19T01:12:30.307Z,63.27
2023-01-19T01:13:32.538Z,61.93
2023-01-19T01:14:34.552Z,62.07
2023-01-19T01:15:36.318Z,62.04
2023-01-19T01:16:38.255Z,61.61
2023-01-19T01:17:47.040Z,62.22
2023-01-19T01:18:48.853Z,62.57
2023-01-19T01:19:52.077Z,62.50
2023-01-19T01:21:00.425Z,61.76
2023-01-19T01:22:02.204Z,61.81
2023-01-19T01:23:04.629Z,61.55
2023-01-19T01:24:07.298Z,62.21
2023-01-19T01:25:09.402Z,62.34
2023-01-19T01:26:11.234Z,62.23
2023-01-19T01:27:13.439Z,61.49
2023-01-19T01:28:15.291Z,61.28
2023-01-19T01:29:17.401Z,60.43
2023-01-19T01:30:19.907Z,60.73
2023-01-19T01:31:21.697Z,60.63
2023-01-19T01:32:23.426Z,61.06
2023-01-19T01:33:41.026Z,60.94
2023-01-19T01:34:44.025Z,60.49
2023-01-19T01:35:45.903Z,61.15
2023-01-19T01:36:47.584Z,61.14
2023-01-19T01:37:49.414Z,61.48
2023-01-19T01:38:51.126Z,61.61
2023-01-19T01:39:52.903Z,61.43
2023-01-19T01:40:54.632Z,61.82
2023-01-19T01:41:56.330Z,62.04
2023-01-19T01:42:59.815Z,62.12
2023-01-19T01:44:08.387Z,62.50
2023-01-19T01:45:30.820Z,62.54
2023-01-19T01:46:32.565Z,62.37
2023-01-19T01:47:45.393Z,62.29
2023-01-19T01:48:55.041Z,62.48
2023-01-19T01:50:06.688Z,62.86
2023-01-19T01:51:35.160Z,60.19
2023-01-19T01:52:40.931Z,60.41
2023-01-19T01:53:44.714Z,60.49
2023-01-19T01:54:46.516Z,60.90
2023-01-19T01:55:49.786Z,60.17
2023-01-19T01:56:53.810Z,60.37
2023-01-19T01:58:01.388Z,60.22
2023-01-19T01:59:06.863Z,59.54
2023-01-19T02:00:09.399Z,59.50
2023-01-19T02:01:29.998Z,60.99
2023-01-19T02:02:51.664Z,61.86
2023-01-19T02:03:54.635Z,63.10
2023-01-19T02:05:00.938Z,63.60
2023-01-19T02:06:07.306Z,63.72
2023-01-19T02:07:31.047Z,63.70
2023-01-19T02:09:29.322Z,63.79
2023-01-19T02:10:50.286Z,63.69
2023-01-19T02:12:10.830Z,63.71
2023-01-19T02:13:20.110Z,63.81
2023-01-19T02:14:21.853Z,63.64
2023-01-19T02:15:23.550Z,64.46
2023-01-19T02:16:25.360Z,64.93
2023-01-19T02:17:27.420Z,65.08
2023-01-19T02:18:31.195Z,64.41
2023-01-19T02:19:41.086Z,63.36
2023-01-19T02:20:51.281Z,62.50
2023-01-19T02:21:59.900Z,62.44
2023-01-19T02:23:07.017Z,61.00
2023-01-19T02:24:09.610Z,60.75
2023-01-19T02:25:11.427Z,61.70
2023-01-19T02:26:20.522Z,61.19
2023-01-19T02:27:22.412Z,60.80
2023-01-19T02:28:26.129Z,61.18
2023-01-19T02:29:29.010Z,60.58
2023-01-19T02:30:30.961Z,60.42
2023-01-19T02:31:34.444Z,59.61
2023-01-19T02:32:36.169Z,59.34
2023-01-19T02:33:38.228Z,58.96
2023-01-19T02:34:40.062Z,58.86
2023-01-19T02:35:44.352Z,59.28
2023-01-19T02:36:55.350Z,59.30
2023-01-19T02:37:58.814Z,58.73
2023-01-19T02:39:02.205Z,59.09
2023-01-19T02:40:08.163Z,58.79
2023-01-19T02:41:13.393Z,59.29
2023-01-19T02:42:19.816Z,59.00
2023-01-19T02:43:23.958Z,58.92
2023-01-19T02:44:27.907Z,58.96
2023-01-19T02:45:30.469Z,58.53
2023-01-19T02:46:33.055Z,58.67
2023-01-19T02:47:40.090Z,58.49
2023-01-19T02:48:42.898Z,58.62
2023-01-19T02:49:44.609Z,57.69
2023-01-19T02:50:50.686Z,57.74
2023-01-19T02:51:52.658Z,57.88
2023-01-19T02:53:01.729Z,57.55
2023-01-19T02:54:39.134Z,58.41
2023-01-19T02:55:46.212Z,58.32
2023-01-19T02:56:56.987Z,58.33
2023-01-19T02:58:14.116Z,57.84
2023-01-19T02:59:31.194Z,57.56
2023-01-19T03:00:33.041Z,57.53
2023-01-19T03:01:56.021Z,57.56
2023-01-19T03:03:10.836Z,57.11
2023-01-19T03:04:39.513Z,57.26
2023-01-19T03:06:03.252Z,57.60
2023-01-19T03:07:15.565Z,57.84
2023-01-19T03:08:35.954Z,57.69
2023-01-19T03:09:48.732Z,58.06
2023-01-19T03:11:09.309Z,58.30
2023-01-19T03:12:26.024Z,58.56
2023-01-19T03:13:50.149Z,59.21
2023-01-19T03:14:57.331Z,59.49
2023-01-19T03:16:13.140Z,59.44
2023-01-19T03:17:18.205Z,59.78
2023-01-19T03:18:24.857Z,59.79
2023-01-19T03:19:32.014Z,59.88
2023-01-19T03:20:34.135Z,59.81
2023-01-19T03:21:39.989Z,60.13
2023-01-19T03:22:43.288Z,60.61
2023-01-19T03:23:46.739Z,60.57
2023-01-19T03:24:50.776Z,60.06
2023-01-19T03:25:55.753Z,60.52
2023-01-19T03:27:06.632Z,59.67
2023-01-19T03:28:08.799Z,59.08
2023-01-19T03:29:13.700Z,58.75
2023-01-19T03:30:20.518Z,59.00
2023-01-19T03:31:26.255Z,58.65
2023-01-19T03:32:36.329Z,58.42
2023-01-19T03:33:41.866Z,59.32
2023-01-19T03:34:46.897Z,58.75
2023-01-19T03:35:53.207Z,58.54
2023-01-19T03:36:59.539Z,58.59
2023-01-19T03:38:06.238Z,58.84
2023-01-19T03:39:10.964Z,59.29
2023-01-19T03:40:12.868Z,59.67
2023-01-19T03:41:17.873Z,59.62
2023-01-19T03:42:20.739Z,59.24
2023-01-19T03:43:23.897Z,58.66
2023-01-19T03:44:28.810Z,58.67
2023-01-19T03:45:33.599Z,58.42
2023-01-19T03:46:35.381Z,58.82
2023-01-19T03:47:37.486Z,58.48
2023-01-19T03:48:39.502Z,58.73
2023-01-19T03:49:45.334Z,58.87
2023-01-19T03:50:47.772Z,57.99
2023-01-19T03:51:49.622Z,57.38
2023-01-19T03:53:10.060Z,57.87
2023-01-19T03:54:12.239Z,57.51
2023-01-19T03:55:14.104Z,57.34
2023-01-19T03:56:24.622Z,57.56
2023-01-19T03:57:26.449Z,57.55
2023-01-19T03:58:28.499Z,57.27
2023-01-19T03:59:30.259Z,57.54
2023-01-19T04:00:32.704Z,57.61
2023-01-19T04:01:34.503Z,57.44
2023-01-19T04:02:36.226Z,57.67
2023-01-19T04:03:38.036Z,58.49
2023-01-19T04:04:40.274Z,58.78
2023-01-19T04:05:43.149Z,57.95
2023-01-19T04:06:44.909Z,58.14
2023-01-19T04:07:49.302Z,59.06
2023-01-19T04:08:51.984Z,58.74
2023-01-19T04:09:53.739Z,59.06
2023-01-19T04:10:57.727Z,59.41
2023-01-19T04:12:01.658Z,58.59
2023-01-19T04:13:04.579Z,58.39
2023-01-19T04:14:06.372Z,59.17
2023-01-19T04:15:08.489Z,58.73
2023-01-19T04:16:11.344Z,59.46
2023-01-19T04:17:13.158Z,59.86
2023-01-19T04:18:14.929Z,59.87
2023-01-19T04:19:16.627Z,60.55
2023-01-19T04:20:18.507Z,60.39
2023-01-19T04:21:23.203Z,61.44
2023-01-19T04:22:24.920Z,61.94
2023-01-19T04:23:27.101Z,61.62
2023-01-19T04:24:28.863Z,61.56
2023-01-19T04:25:30.704Z,62.96
2023-01-19T04:26:32.431Z,63.17
2023-01-19T04:27:34.163Z,62.30
2023-01-19T04:28:37.300Z,62.91
2023-01-19T04:29:39.019Z,63.28
2023-01-19T04:30:40.789Z,63.76
2023-01-19T04:31:43.224Z,62.69
2023-01-19T04:32:45.113Z,62.67
2023-01-19T04:33:46.842Z,62.40
2023-01-19T04:34:48.572Z,62.28
2023-01-19T04:35:53.439Z,62.81
2023-01-19T04:36:56.176Z,62.58
2023-01-19T04:37:57.882Z,62.73
2023-01-19T04:38:59.560Z,62.54
2023-01-19T04:40:01.290Z,63.20
2023-01-19T04:41:03.103Z,63.25
2023-01-19T04:42:04.918Z,62.97
2023-01-19T04:43:07.571Z,63.13
2023-01-19T04:44:09.295Z,63.96
2023-01-19T04:45:12.458Z,63.94
2023-01-19T04:46:15.055Z,64.18
2023-01-19T04:47:16.812Z,64.11
2023-01-19T04:48:19.169Z,64.47
2023-01-19T04:49:21.590Z,65.01
2023-01-19T04:50:23.391Z,64.54
2023-01-19T04:51:25.198Z,64.74
2023-01-19T04:52:35.151Z,64.44
2023-01-19T04:53:36.971Z,64.15
2023-01-19T04:54:38.694Z,64.38
2023-01-19T04:55:40.779Z,64.56
2023-01-19T04:56:42.506Z,64.26
2023-01-19T04:57:44.604Z,64.73
2023-01-19T04:58:46.361Z,65.42
2023-01-19T04:59:48.053Z,65.04
2023-01-19T05:00:51.309Z,64.22
2023-01-19T05:01:53.230Z,64.76
2023-01-19T05:02:55.049Z,64.55
2023-01-19T05:03:59.767Z,64.25
2023-01-19T05:05:01.758Z,64.20
2023-01-19T05:06:03.642Z,64.29
2023-01-19T05:07:05.345Z,64.67
2023-01-19T05:08:07.106Z,65.09
2023-01-19T05:09:09.252Z,64.62
2023-01-19T05:10:12.061Z,64.64
2023-01-19T05:11:13.808Z,65.36
2023-01-19T05:12:15.911Z,64.90
2023-01-19T05:13:17.680Z,65.51
2023-01-19T05:14:19.416Z,65.89
2023-01-19T05:15:21.662Z,66.31
2023-01-19T05:16:23.648Z,66.00
2023-01-19T05:17:25.769Z,66.39
2023-01-19T05:18:27.589Z,65.58
2023-01-19T05:19:29.615Z,65.27
2023-01-19T05:20:31.451Z,64.84
2023-01-19T05:21:33.155Z,63.80
2023-01-19T05:22:34.978Z,64.32
2023-01-19T05:23:36.711Z,65.34
2023-01-19T05:24:38.421Z,65.40
2023-01-19T05:25:40.160Z,65.80
2023-01-19T05:26:41.952Z,65.58
2023-01-19T05:27:44.814Z,65.21
2023-01-19T05:28:46.576Z,65.79
2023-01-19T05:29:48.288Z,66.37
2023-01-19T05:30:50.348Z,66.88
2023-01-19T05:31:52.249Z,67.15
2023-01-19T05:32:53.976Z,66.70
2023-01-19T05:33:55.687Z,66.28
2023-01-19T05:34:57.387Z,65.27
2023-01-19T05:35:59.110Z,65.77
2023-01-19T05:37:00.890Z,65.94
2023-01-19T05:38:02.599Z,65.16
2023-01-19T05:39:04.720Z,65.49
2023-01-19T05:40:07.311Z,65.77
2023-01-19T05:41:09.128Z,65.86
2023-01-19T05:42:10.804Z,65.77
2023-01-19T05:43:13.177Z,66.99
2023-01-19T05:44:14.926Z,68.05
2023-01-19T05:45:16.665Z,67.73
2023-01-19T05:46:18.382Z,68.64
2023-01-19T05:47:20.155Z,69.11
2023-01-19T05:48:22.085Z,68.93
2023-01-19T05:49:23.852Z,68.19
2023-01-19T05:50:25.857Z,68.13
2023-01-19T05:51:31.983Z,68.37
2023-01-19T05:52:33.745Z,66.67
2023-01-19T05:53:35.464Z,66.12
2023-01-19T05:54:37.282Z,64.93
2023-01-19T05:55:39.346Z,65.23
2023-01-19T05:56:41.353Z,65.11
2023-01-19T05:57:43.515Z,65.02
2023-01-19T05:58:45.257Z,65.38
2023-01-19T05:59:46.996Z,65.24
2023-01-19T06:00:48.707Z,64.77
2023-01-19T06:01:51.845Z,65.47
2023-01-19T06:02:54.130Z,65.08
2023-01-19T06:03:55.953Z,64.82
2023-01-19T06:04:57.758Z,64.06
2023-01-19T06:06:00.381Z,63.61
2023-01-19T06:07:02.467Z,63.52
2023-01-19T06:08:04.289Z,63.70
2023-01-19T06:09:07.956Z,63.63
2023-01-19T06:10:10.309Z,62.52
2023-01-19T06:11:12.323Z,62.22
2023-01-19T06:12:14.271Z,62.47
2023-01-19T06:13:15.999Z,62.70
2023-01-19T06:14:17.800Z,62.76
2023-01-19T06:15:19.963Z,62.66
2023-01-19T06:16:21.744Z,62.53
2023-01-19T06:17:23.469Z,61.88
2023-01-19T06:18:25.203Z,62.84
2023-01-19T06:19:26.978Z,62.59
2023-01-19T06:20:28.703Z,62.87
2023-01-19T06:21:30.428Z,61.04
2023-01-19T06:22:32.225Z,61.87
2023-01-19T06:23:35.798Z,61.59
2023-01-19T06:24:37.721Z,61.31
2023-01-19T06:25:39.440Z,61.60
2023-01-19T06:26:42.350Z,61.17
2023-01-19T06:27:45.452Z,61.91
2023-01-19T06:28:48.707Z,61.80
2023-01-19T06:29:50.431Z,61.79
2023-01-19T06:30:54.101Z,61.78
2023-01-19T06:31:55.987Z,61.35
2023-01-19T06:32:57.970Z,61.30
2023-01-19T06:33:59.835Z,61.79
2023-01-19T06:35:01.641Z,62.73
2023-01-19T06:36:03.839Z,62.18
2023-01-19T06:37:05.532Z,61.14
2023-01-19T06:38:07.341Z,61.44
2023-01-19T06:39:09.824Z,60.50
2023-01-19T06:40:14.494Z,61.65
2023-01-19T06:41:16.503Z,61.72
2023-01-19T06:42:18.213Z,61.34
2023-01-19T06:43:20.793Z,61.42
2023-01-19T06:44:22.550Z,62.05
2023-01-19T06:45:24.239Z,63.41
2023-01-19T06:46:26.381Z,63.27
2023-01-19T06:47:28.075Z,64.28
2023-01-19T06:48:31.853Z,63.82
2023-01-19T06:49:33.827Z,63.48
2023-01-19T06:50:35.643Z,63.78
2023-01-19T06:51:37.393Z,64.18
2023-01-19T06:52:42.516Z,64.62
2023-01-19T06:53:44.438Z,64.01
2023-01-19T06:54:46.919Z,64.29
2023-01-19T06:55:48.646Z,64.66
2023-01-19T06:56:50.343Z,63.65
2023-01-19T06:57:59.283Z,62.04
2023-01-19T06:59:00.975Z,62.14
2023-01-19T07:00:05.704Z,63.52
2023-01-19T07:01:08.077Z,63.15
2023-01-19T07:02:27.964Z,63.89
2023-01-19T07:03:30.459Z,64.51
2023-01-19T07:04:32.206Z,64.21
2023-01-19T07:05:35.955Z,64.85
2023-01-19T07:06:37.698Z,64.78
2023-01-19T07:07:39.906Z,64.85
2023-01-19T07:08:41.711Z,65.74
2023-01-19T07:09:43.442Z,65.29
2023-01-19T07:11:25.200Z,65.03
2023-01-19T07:12:07.947Z,66.20
2023-01-19T07:13:09.675Z,64.30
2023-01-19T07:14:11.873Z,65.11
2023-01-19T07:15:19.618Z,66.33
2023-01-19T07:16:21.466Z,66.50
2023-01-19T07:17:23.199Z,65.52
2023-01-19T07:18:24.902Z,65.74
2023-01-19T07:19:26.572Z,65.05
2023-01-19T07:20:28.286Z,64.65
2023-01-19T07:21:30.388Z,63.20
2023-01-19T07:22:32.123Z,62.13
2023-01-19T07:23:34.139Z,61.21
2023-01-19T07:24:38.070Z,60.31
2023-01-19T07:25:40.248Z,58.62
2023-01-19T07:26:42.449Z,57.46
2023-01-19T07:27:45.117Z,56.52
2023-01-19T07:28:48.359Z,55.36
2023-01-19T07:29:50.083Z,55.09
2023-01-19T07:30:53.479Z,54.54
2023-01-19T07:31:55.329Z,54.70
2023-01-19T07:32:58.345Z,53.29
2023-01-19T07:34:00.437Z,52.55
2023-01-19T07:35:02.293Z,51.83
2023-01-19T07:36:04.153Z,51.30
2023-01-19T07:37:05.914Z,50.01
2023-01-19T07:38:07.626Z,49.45
2023-01-19T07:39:09.339Z,49.66
2023-01-19T07:40:11.873Z,48.68
2023-01-19T07:41:13.972Z,47.22
2023-01-19T07:42:15.892Z,45.71
2023-01-19T07:43:17.600Z,46.12
2023-01-19T07:44:19.282Z,46.22
2023-01-19T07:45:21.946Z,47.81
2023-01-19T07:46:23.741Z,47.20
2023-01-19T07:47:25.499Z,46.68
2023-01-19T07:48:27.906Z,44.85
2023-01-19T07:49:29.605Z,44.94
2023-01-19T07:50:31.550Z,45.03
2023-01-19T07:51:33.266Z,43.89
2023-01-19T07:52:34.951Z,43.00
2023-01-19T07:53:36.781Z,42.90
2023-01-19T07:54:38.583Z,41.69
2023-01-19T07:55:40.291Z,41.56
2023-01-19T07:56:42.030Z,41.24
2023-01-19T07:57:43.787Z,40.49
2023-01-19T07:58:45.517Z,39.31
2023-01-19T07:59:47.250Z,38.79
2023-01-19T08:00:49.090Z,39.78
2023-01-19T08:01:51.184Z,39.18
2023-01-19T08:02:53.930Z,38.52
2023-01-19T08:03:55.822Z,38.59
2023-01-19T08:04:57.539Z,38.54
2023-01-19T08:06:00.045Z,37.54
2023-01-19T08:07:02.115Z,37.78
2023-01-19T08:08:05.637Z,37.68
2023-01-19T08:09:07.632Z,36.56
2023-01-19T08:10:13.263Z,36.54
2023-01-19T08:11:15.996Z,36.09
2023-01-19T08:12:18.417Z,36.56
2023-01-19T08:13:20.263Z,35.96
2023-01-19T08:14:21.976Z,34.66
2023-01-19T08:15:24.910Z,34.61
2023-01-19T08:16:27.927Z,34.21
2023-01-19T08:17:29.640Z,34.64
2023-01-19T08:18:31.340Z,34.71
2023-01-19T08:19:33.075Z,34.21
2023-01-19T08:20:34.792Z,33.62
2023-01-19T08:21:38.473Z,32.77
2023-01-19T08:22:40.187Z,32.36
2023-01-19T08:23:41.963Z,32.11
2023-01-19T08:24:43.734Z,33.04
2023-01-19T08:25:46.168Z,32.36
2023-01-19T08:26:48.031Z,32.05
2023-01-19T08:27:49.769Z,31.97
2023-01-19T08:28:51.513Z,31.90
2023-01-19T08:29:54.515Z,31.92
2023-01-19T08:30:56.377Z,30.82
2023-01-19T08:32:00.291Z,30.71
2023-01-19T08:33:05.111Z,30.40
2023-01-19T08:34:06.968Z,30.98
2023-01-19T08:35:09.077Z,30.76
2023-01-19T08:36:10.781Z,31.38
2023-01-19T08:37:12.684Z,30.65
2023-01-19T08:38:15.208Z,29.64
2023-01-19T08:39:18.146Z,29.85
2023-01-19T08:40:20.342Z,30.40
2023-01-19T08:41:22.501Z,30.17
2023-01-19T08:42:24.194Z,29.33
2023-01-19T08:43:26.087Z,29.83
2023-01-19T08:44:28.156Z,29.16
2023-01-19T08:45:31.223Z,28.33
2023-01-19T08:46:32.953Z,28.41
2023-01-19T08:47:34.670Z,28.60
2023-01-19T08:48:38.183Z,28.04
2023-01-19T08:49:41.409Z,26.91
2023-01-19T08:50:46.807Z,26.35
2023-01-19T08:51:49.191Z,27.15
2023-01-19T08:52:51.391Z,26.85
2023-01-19T08:53:53.107Z,27.23
2023-01-19T08:54:54.868Z,26.37
2023-01-19T08:55:59.955Z,26.79
2023-01-19T08:57:01.752Z,26.70
2023-01-19T08:58:05.385Z,25.52
2023-01-19T09:00:31.525Z,25.81
2023-01-19T09:01:33.315Z,26.19
2023-01-19T09:02:35.255Z,26.00
2023-01-19T09:03:37.410Z,25.40
2023-01-19T09:04:39.126Z,25.83
2023-01-19T09:05:40.993Z,26.17
2023-01-19T09:06:42.806Z,26.15
2023-01-19T09:07:48.063Z,26.78
2023-01-19T09:08:49.902Z,25.60
2023-01-19T09:09:51.684Z,25.38
2023-01-19T09:10:53.388Z,24.71
2023-01-19T09:11:55.876Z,24.99
2023-01-19T09:12:58.143Z,25.96
2023-01-19T09:13:59.987Z,25.05
2023-01-19T09:15:01.796Z,24.37
2023-01-19T09:16:04.010Z,25.25
2023-01-19T09:17:07.031Z,25.60
2023-01-19T09:18:16.185Z,25.94
2023-01-19T09:19:18.419Z,26.17
2023-01-19T09:20:20.104Z,26.93
2023-01-19T09:21:21.865Z,27.45
2023-01-19T09:22:23.589Z,27.38
2023-01-19T09:23:25.555Z,27.35
2023-01-19T09:24:27.287Z,27.35
2023-01-19T09:25:29.036Z,26.04
2023-01-19T09:26:33.071Z,26.94
2023-01-19T09:27:35.196Z,26.93
2023-01-19T09:28:38.225Z,26.54
2023-01-19T09:29:39.911Z,27.81
2023-01-19T09:30:43.206Z,27.03
2023-01-19T09:31:45.775Z,26.09
2023-01-19T09:32:47.594Z,26.48
2023-01-19T09:33:49.371Z,26.97
2023-01-19T09:34:51.276Z,26.88
2023-01-19T09:35:53.123Z,26.04
2023-01-19T09:36:54.966Z,26.24
2023-01-19T09:37:56.656Z,25.20
2023-01-19T09:38:58.371Z,25.35
2023-01-19T09:40:00.150Z,25.04
2023-01-19T09:41:01.964Z,25.82
2023-01-19T09:42:24.577Z,25.04
2023-01-19T09:43:45.539Z,25.93
2023-01-19T09:44:50.635Z,25.46
2023-01-19T09:45:54.251Z,25.21
2023-01-19T09:46:56.036Z,23.97
2023-01-19T09:48:02.784Z,24.30
2023-01-19T09:49:33.586Z,24.51
2023-01-19T09:50:39.951Z,23.62
2023-01-19T09:51:46.383Z,23.62
2023-01-19T09:52:57.295Z,23.76
2023-01-19T09:54:11.097Z,23.44
2023-01-19T09:55:26.332Z,23.17
2023-01-19T09:56:29.711Z,22.90
2023-01-19T09:57:32.511Z,23.52
2023-01-19T09:58:34.275Z,24.20
2023-01-19T09:59:37.284Z,23.42
2023-01-19T10:00:39.527Z,23.80
2023-01-19T10:01:54.625Z,23.56
2023-01-19T10:03:04.022Z,23.56
2023-01-19T10:04:14.501Z,24.25
2023-01-19T10:05:42.208Z,23.67
2023-01-19T10:06:44.329Z,23.79
2023-01-19T10:07:54.741Z,24.03
2023-01-19T10:09:15.406Z,23.70
2023-01-19T10:10:31.943Z,24.16
2023-01-19T10:11:52.679Z,23.37
2023-01-19T10:12:57.660Z,24.38
2023-01-19T10:13:59.867Z,24.29
2023-01-19T10:15:25.048Z,25.07
2023-01-19T10:16:51.018Z,23.87
2023-01-19T10:18:01.101Z,23.80
2023-01-19T10:19:24.062Z,23.60
2023-01-19T10:20:37.879Z,24.28
2023-01-19T10:21:43.668Z,24.70
2023-01-19T10:22:50.626Z,26.92
2023-01-19T10:23:59.983Z,26.33
2023-01-19T10:25:07.298Z,24.90
2023-01-19T10:26:16.682Z,25.79
2023-01-19T10:27:24.016Z,24.56
2023-01-19T10:28:27.288Z,24.60
2023-01-19T10:29:36.325Z,25.10
2023-01-19T10:30:38.237Z,24.13
2023-01-19T10:31:42.322Z,24.27
2023-01-19T10:32:44.638Z,25.13
2023-01-19T10:33:46.557Z,24.54
2023-01-19T10:34:49.831Z,24.70
2023-01-19T10:35:51.667Z,24.97
2023-01-19T10:37:02.184Z,24.80
2023-01-19T10:38:04.385Z,25.05
2023-01-19T10:39:08.050Z,24.67
2023-01-19T10:40:09.728Z,24.78
2023-01-19T10:41:34.994Z,23.50
2023-01-19T10:42:39.007Z,23.71
2023-01-19T10:43:43.548Z,24.25
2023-01-19T10:44:46.067Z,24.22
2023-01-19T10:45:50.999Z,23.43
2023-01-19T10:46:58.382Z,24.19
2023-01-19T10:48:07.390Z,23.94
2023-01-19T10:49:30.112Z,23.71
2023-01-19T10:50:34.906Z,23.36
2023-01-19T10:51:48.577Z,22.87
2023-01-19T10:52:53.972Z,22.48
2023-01-19T10:53:58.875Z,22.47
2023-01-19T10:55:03.043Z,21.23
2023-01-19T10:56:17.848Z,20.95
2023-01-19T10:57:32.583Z,20.47
2023-01-19T10:58:35.400Z,20.74
2023-01-19T10:59:51.323Z,20.20
2023-01-19T11:00:53.171Z,21.08
2023-01-19T11:02:13.451Z,21.44
2023-01-19T11:03:21.585Z,20.40
2023-01-19T11:04:29.605Z,20.92
2023-01-19T11:05:33.884Z,18.59
2023-01-19T11:06:35.932Z,21.04
2023-01-19T11:07:37.680Z,21.31
2023-01-19T11:08:39.620Z,22.04
2023-01-19T11:09:41.338Z,20.22
2023-01-19T11:10:53.220Z,20.58
2023-01-19T11:11:55.829Z,21.92
2023-01-19T11:13:03.980Z,23.03
2023-01-19T11:14:15.083Z,23.37
2023-01-19T11:15:23.136Z,24.75
2023-01-19T11:16:30.921Z,23.37
2023-01-19T11:17:33.931Z,23.54
2023-01-19T11:18:40.060Z,21.78
2023-01-19T11:19:41.806Z,22.86
2023-01-19T11:20:52.853Z,22.11
2023-01-19T11:22:24.889Z,21.38
2023-01-19T11:23:30.467Z,22.38
2023-01-19T11:24:32.204Z,23.22
2023-01-19T11:25:36.074Z,22.42
2023-01-19T11:26:48.055Z,20.36
2023-01-19T11:27:52.178Z,21.03
2023-01-19T11:28:56.573Z,20.84
2023-01-19T11:30:10.545Z,21.09
2023-01-19T11:31:15.133Z,20.26
2023-01-19T11:32:22.471Z,20.62
2023-01-19T11:33:34.932Z,21.14
2023-01-19T11:34:38.997Z,21.99
2023-01-19T11:35:41.728Z,22.41
2023-01-19T11:37:13.693Z,21.59
2023-01-19T11:38:23.251Z,22.17
2023-01-19T11:39:28.502Z,23.52
2023-01-19T11:40:31.411Z,24.06
2023-01-19T11:41:38.471Z,23.57
2023-01-19T11:42:40.232Z,23.07
2023-01-19T11:43:48.914Z,22.65
2023-01-19T11:45:12.717Z,23.68
2023-01-19T11:46:15.375Z,22.51
2023-01-19T11:47:32.476Z,22.08
2023-01-19T11:48:39.610Z,23.93
2023-01-19T11:49:56.133Z,22.02
2023-01-19T11:51:01.639Z,22.48
2023-01-19T11:52:33.769Z,21.93
2023-01-19T11:53:36.251Z,22.11
2023-01-19T11:54:52.333Z,22.33
2023-01-19T11:56:06.859Z,22.72
2023-01-19T11:57:17.183Z,23.35
2023-01-19T11:58:20.142Z,23.16
2023-01-19T11:59:25.026Z,22.04
2023-01-19T12:00:36.921Z,22.41
2023-01-19T12:01:46.529Z,22.73
2023-01-19T12:02:53.185Z,23.22
2023-01-19T12:04:05.605Z,23.78
2023-01-19T12:05:15.083Z,23.85
2023-01-19T12:06:24.560Z,23.72
2023-01-19T12:07:31.118Z,24.23
2023-01-19T12:08:45.427Z,24.38
2023-01-19T12:09:51.700Z,24.20
2023-01-19T12:10:56.015Z,23.75
2023-01-19T12:12:04.280Z,24.13
2023-01-19T12:13:06.070Z,23.52
2023-01-19T12:14:18.096Z,23.50
2023-01-19T12:15:42.842Z,24.13
2023-01-19T12:16:46.541Z,22.78
2023-01-19T12:17:54.523Z,23.93
2023-01-19T12:19:18.180Z,23.56
2023-01-19T12:20:47.154Z,23.06
2023-01-19T12:21:49.923Z,23.72
2023-01-19T12:23:11.653Z,22.83
2023-01-19T12:24:18.208Z,22.91
2023-01-19T12:25:24.944Z,22.18
2023-01-19T12:26:38.419Z,22.45
2023-01-19T12:27:42.812Z,21.92
2023-01-19T12:28:47.492Z,23.76
2023-01-19T12:29:50.479Z,22.94
2023-01-19T12:30:52.463Z,22.16
2023-01-19T12:32:13.117Z,22.95
2023-01-19T12:33:36.948Z,23.84
2023-01-19T12:34:44.242Z,23.06
2023-01-19T12:36:09.202Z,22.56
2023-01-19T12:37:41.791Z,23.25
2023-01-19T12:39:12.591Z,23.63
2023-01-19T12:40:35.274Z,23.40
2023-01-19T12:41:38.564Z,24.10
2023-01-19T12:42:46.818Z,25.28
2023-01-19T12:44:09.826Z,23.93
2023-01-19T12:45:21.372Z,24.30
2023-01-19T12:46:31.349Z,23.46
2023-01-19T12:47:33.751Z,23.52
2023-01-19T12:48:35.537Z,23.75
2023-01-19T12:49:47.635Z,24.38
2023-01-19T12:50:49.387Z,24.49
2023-01-19T12:51:53.785Z,24.29
2023-01-19T12:52:58.746Z,24.71
2023-01-19T12:54:05.298Z,24.54
2023-01-19T12:55:07.363Z,24.13
2023-01-19T12:56:17.287Z,24.86
2023-01-19T12:57:37.372Z,24.99
2023-01-19T12:58:39.145Z,24.65
2023-01-19T12:59:41.024Z,25.10
2023-01-19T13:00:45.188Z,25.35
2023-01-19T13:02:18.541Z,25.50
2023-01-19T13:03:20.170Z,25.01
2023-01-19T13:04:33.269Z,25.45
2023-01-19T13:05:41.087Z,26.00
2023-01-19T13:06:49.057Z,25.52
2023-01-19T13:08:03.093Z,25.86
2023-01-19T13:09:34.740Z,25.45
2023-01-19T13:10:54.985Z,25.41
2023-01-19T13:12:14.986Z,25.98
2023-01-19T13:13:32.651Z,25.94
2023-01-19T13:14:37.165Z,25.97
2023-01-19T13:15:39.483Z,26.69
2023-01-19T13:16:41.298Z,25.30
2023-01-19T13:17:51.168Z,25.88
2023-01-19T13:19:08.643Z,26.10
2023-01-19T13:20:31.869Z,26.00
2023-01-19T13:21:36.564Z,26.49
2023-01-19T13:22:49.658Z,25.91
2023-01-19T13:23:56.939Z,26.79
2023-01-19T13:25:14.079Z,27.12
2023-01-19T13:26:18.516Z,27.08
2023-01-19T13:27:20.264Z,26.83
2023-01-19T13:28:31.037Z,26.74
2023-01-19T13:29:40.530Z,27.67
2023-01-19T13:30:54.301Z,27.12
2023-01-19T13:32:02.626Z,26.78
2023-01-19T13:33:15.469Z,27.12
2023-01-19T13:34:24.959Z,27.55
2023-01-19T13:35:26.690Z,27.38
2023-01-19T13:36:33.582Z,27.09
2023-01-19T13:37:44.541Z,27.28
2023-01-19T13:38:47.912Z,27.37
2023-01-19T13:39:53.880Z,26.60
2023-01-19T13:40:59.991Z,27.06
2023-01-19T13:42:06.236Z,27.73
2023-01-19T13:43:18.028Z,28.00
2023-01-19T13:44:42.223Z,27.45
2023-01-19T13:45:51.178Z,27.20
2023-01-19T13:46:56.545Z,27.12
2023-01-19T13:48:01.532Z,27.10
2023-01-19T13:49:29.792Z,27.18
2023-01-19T13:50:35.893Z,27.30
2023-01-19T13:51:37.603Z,26.61
2023-01-19T13:52:43.584Z,27.09
2023-01-19T13:53:59.242Z,27.31
2023-01-19T13:55:03.806Z,26.89
2023-01-19T13:56:09.927Z,27.22
2023-01-19T13:57:32.983Z,27.28
2023-01-19T13:58:34.930Z,27.36
2023-01-19T13:59:36.658Z,28.34
2023-01-19T14:00:38.669Z,27.46
2023-01-19T14:01:44.675Z,27.69
2023-01-19T14:03:01.778Z,27.76
2023-01-19T14:04:04.052Z,28.32
2023-01-19T14:05:16.059Z,28.11